Time;durP1;ratioP1;P1;durP2;ratioP2;P2;SDS_P1;SDS_P2;PMS_P1;PMS_P2;Temp;Humidity;BMP_temperature;BMP_pressure;BME280_temperature;BME280_humidity;BME280_pressure;Samples;Min_cycle;Max_cycle;Signal;HPM_P1;HPM_P2
2022/08/12 00:43:16;;;;;;;3.03;2.83;;;12.10;99.90;;;;;;5096584;28;20153;-74
2022/08/12 00:48:28;;;;;;;2.15;1.95;;;12.00;99.90;;;;;;5096174;28;20454;-74
2022/08/12 00:50:55;;;;;;;3.22;2.50;;;11.90;99.90;;;;;;5096078;28;20028;-74
2022/08/12 00:53:21;;;;;;;2.63;2.10;;;11.90;99.90;;;;;;5094815;28;20089;-74
2022/08/12 00:55:50;;;;;;;3.00;2.33;;;11.90;99.90;;;;;;5094947;28;20402;-74
2022/08/12 00:58:22;;;;;;;2.33;2.17;;;11.90;99.90;;;;;;5095999;28;20032;-83
2022/08/12 01:00:49;;;;;;;2.10;2.00;;;11.90;99.90;;;;;;5094621;28;20522;-73
2022/08/12 01:03:18;;;;;;;3.25;2.97;;;11.90;99.90;;;;;;5094599;28;20026;-83
2022/08/12 01:11:30;;;;;;;2.65;2.45;;;12.20;99.90;;;;;;5096329;28;20035;-74
2022/08/12 01:13:59;;;;;;;1.65;1.63;;;12.20;99.90;;;;;;5095659;28;20020;-82
2022/08/12 01:16:25;;;;;;;2.38;1.95;;;12.10;99.90;;;;;;5095638;28;20032;-82
2022/08/12 01:18:53;;;;;;;1.50;1.40;;;12.00;99.90;;;;;;5095578;28;20019;-81
2022/08/12 01:21:25;;;;;;;1.90;1.80;;;11.90;99.90;;;;;;5094359;28;20508;-81
2022/08/12 01:23:59;;;;;;;1.50;1.40;;;11.90;99.90;;;;;;5095559;28;20031;-81
2022/08/12 01:26:25;;;;;;;3.80;1.77;;;11.80;99.90;;;;;;5095464;28;20012;-74
2022/08/12 01:28:57;;;;;;;2.17;1.70;;;11.70;99.90;;;;;;5094071;28;20028;-82
2022/08/12 01:31:25;;;;;;;3.03;2.83;;;11.70;99.90;;;;;;5095388;28;20378;-74
2022/08/12 01:34:06;;;;;;;2.15;1.95;;;11.70;99.90;;;;;;5095317;28;20036;-74
2022/08/12 01:36:49;;;;;;;3.05;2.75;;;11.80;99.90;;;;;;5095211;28;20032;-74
2022/08/12 01:39:16;;;;;;;3.13;2.50;;;11.90;99.90;;;;;;5094021;28;20016;-83
2022/08/12 01:41:51;;;;;;;2.85;2.53;;;11.90;99.90;;;;;;5095227;28;20024;-73
2022/08/12 01:44:18;;;;;;;6.13;3.83;;;11.90;99.90;;;;;;5093730;28;20023;-74
2022/08/12 01:47:11;;;;;;;4.47;3.20;;;11.90;99.90;;;;;;5095145;28;20055;-74
2022/08/12 01:50:12;;;;;;;4.85;2.90;;;11.90;99.90;;;;;;5093787;28;20082;-83
2022/08/12 01:52:52;;;;;;;4.40;2.50;;;11.90;99.90;;;;;;5093128;28;20032;-82
2022/08/12 01:55:23;;;;;;;3.40;2.55;;;11.80;99.90;;;;;;5073391;28;20082;-78
2022/08/12 01:58:05;;;;;;;6.40;4.25;;;11.70;99.90;;;;;;5074527;28;20498;-73
2022/08/12 02:00:43;;;;;;;5.57;3.40;;;11.70;99.90;;;;;;5082441;28;20423;-73
2022/08/12 02:12:46;;;;;;;;;;;11.90;99.90;;;;;;5094991;28;20127;-74
2022/08/12 02:15:58;;;;;;;6.03;5.22;;;12.00;99.90;;;;;;5093095;28;19911;-74
2022/08/12 02:18:54;;;;;;;7.65;6.00;;;12.00;99.90;;;;;;5092158;28;20375;-83
2022/08/12 02:21:36;;;;;;;8.57;6.68;;;12.10;99.90;;;;;;5092337;28;20062;-83
2022/08/12 02:24:03;;;;;;;7.40;6.63;;;12.20;99.90;;;;;;5093216;28;20130;-83
2022/08/12 02:26:32;;;;;;;8.10;6.30;;;12.30;99.90;;;;;;5094466;28;20393;-74
2022/08/12 02:28:58;;;;;;;10.20;7.70;;;12.30;99.90;;;;;;5093089;28;20027;-74
2022/08/12 02:31:28;;;;;;;7.70;6.90;;;12.40;99.90;;;;;;5094046;28;20390;-74
2022/08/12 02:33:55;;;;;;;7.72;6.63;;;12.50;99.90;;;;;;5092872;28;20020;-73
2022/08/12 02:36:21;;;;;;;6.95;5.95;;;12.60;99.90;;;;;;5093998;28;20043;-83
2022/08/12 02:38:49;;;;;;;6.47;5.72;;;12.50;99.90;;;;;;5092838;28;20437;-73
2022/08/12 02:41:17;;;;;;;7.55;6.18;;;12.50;99.90;;;;;;5094123;28;20474;-73
2022/08/12 02:43:50;;;;;;;6.72;5.97;;;12.60;99.90;;;;;;5094038;28;20024;-74
2022/08/12 02:46:31;;;;;;;5.82;5.28;;;12.60;99.90;;;;;;5092794;28;20032;-82
2022/08/12 02:49:08;;;;;;;8.02;4.90;;;12.60;99.90;;;;;;5092302;28;20036;-73
2022/08/12 02:51:38;;;;;;;9.00;5.93;;;12.50;99.90;;;;;;5092489;28;20438;-82
2022/08/12 02:54:06;;;;;;;5.00;4.57;;;12.50;99.90;;;;;;5093773;28;20478;-81
2022/08/12 02:56:36;;;;;;;9.30;5.60;;;12.40;99.90;;;;;;5093697;28;20031;-81
2022/08/12 02:59:03;;;;;;;7.60;6.35;;;12.30;99.90;;;;;;5093803;28;20124;-74
2022/08/12 03:01:32;;;;;;;5.78;5.05;;;12.30;99.90;;;;;;5093644;28;20031;-80
2022/08/12 03:04:01;;;;;;;5.63;5.22;;;12.30;99.90;;;;;;5093679;28;20032;-73
2022/08/12 03:06:43;;;;;;;8.95;6.18;;;12.20;99.90;;;;;;5092456;28;20020;-73
2022/08/12 03:09:14;;;;;;;5.97;3.95;;;12.20;99.90;;;;;;5093522;28;20389;-83
2022/08/12 03:12:06;;;;;;;5.75;4.50;;;12.10;99.90;;;;;;5093720;28;20020;-74
2022/08/12 03:14:34;;;;;;;5.15;4.10;;;12.00;99.90;;;;;;5087123;28;20062;-73
2022/08/12 03:17:42;;;;;;;7.30;4.32;;;11.90;99.90;;;;;;5093346;28;20036;-82
2022/08/12 03:20:16;;;;;;;8.40;5.35;;;11.90;99.90;;;;;;5093386;28;20036;-81
2022/08/12 03:22:43;;;;;;;7.22;5.53;;;11.90;99.90;;;;;;5093732;28;20031;-73
2022/08/12 03:25:23;;;;;;;6.57;5.95;;;11.90;99.90;;;;;;5093474;28;20013;-74
2022/08/12 03:27:54;;;;;;;8.27;6.82;;;12.00;99.90;;;;;;5093398;28;20106;-73
2022/08/12 03:30:25;;;;;;;7.82;5.72;;;12.00;99.90;;;;;;5093435;28;20016;-82
2022/08/12 03:32:54;;;;;;;7.78;6.85;;;12.00;99.90;;;;;;5092199;28;20048;-83
2022/08/12 03:35:26;;;;;;;6.28;5.70;;;12.00;99.90;;;;;;5093184;28;20024;-83
2022/08/12 03:38:00;;;;;;;7.07;5.65;;;12.00;99.90;;;;;;5093486;28;20397;-83
2022/08/12 04:00:27;;;;;;;8.35;7.10;;;12.20;99.90;;;;;;5097479;28;20074;-83
2022/08/12 04:03:00;;;;;;;7.10;6.22;;;12.30;99.90;;;;;;5097420;28;20016;-74
2022/08/12 04:05:28;;;;;;;5.38;4.90;;;12.20;99.90;;;;;;5096979;28;20020;-74
2022/08/12 04:07:54;;;;;;;8.50;5.63;;;12.20;99.90;;;;;;5097031;28;20486;-73
2022/08/12 04:10:20;;;;;;;8.27;6.78;;;12.30;99.90;;;;;;5095529;28;20020;-82
2022/08/12 04:13:18;;;;;;;7.88;6.15;;;12.40;99.90;;;;;;5097135;28;20036;-84
2022/08/12 04:15:44;;;;;;;9.70;5.63;;;12.50;99.90;;;;;;5096784;28;20060;-84
2022/08/12 04:18:17;;;;;;;7.70;5.90;;;12.70;99.90;;;;;;5096884;28;20027;-83
2022/08/12 04:20:45;;;;;;;6.93;6.22;;;12.90;99.90;;;;;;5096672;28;20020;-74
2022/08/12 04:23:13;;;;;;;7.80;6.15;;;13.00;99.90;;;;;;5095314;28;20020;-83
2022/08/12 04:25:40;;;;;;;10.30;6.00;;;13.10;99.90;;;;;;5096648;28;20492;-74
2022/08/12 04:28:07;;;;;;;6.57;5.53;;;13.30;99.90;;;;;;5096652;28;20056;-84
2022/08/12 04:30:34;;;;;;;6.70;6.10;;;13.40;99.90;;;;;;5096492;28;20107;-83
2022/08/12 04:33:00;;;;;;;6.68;5.70;;;13.50;99.90;;;;;;5095298;28;20455;-84
2022/08/12 04:35:26;;;;;;;8.40;6.80;;;13.60;99.90;;;;;;5095168;28;20035;-74
2022/08/12 04:37:54;;;;;;;7.65;6.85;;;13.80;99.90;;;;;;5096304;28;20032;-74
2022/08/12 04:40:22;;;;;;;10.82;8.02;;;13.90;99.90;;;;;;5096266;28;20020;-84
2022/08/12 04:42:49;;;;;;;9.13;7.80;;;14.10;99.90;;;;;;5096310;28;20389;-74
2022/08/12 04:45:15;;;;;;;10.55;7.43;;;14.20;99.90;;;;;;5094828;28;20027;-83
2022/08/12 04:47:41;;;;;;;11.23;8.00;;;14.40;99.90;;;;;;5095873;28;20032;-74
2022/08/12 04:50:08;;;;;;;7.95;7.07;;;14.50;99.90;;;;;;5095024;28;20500;-75
2022/08/12 04:52:34;;;;;;;7.93;7.15;;;14.60;99.90;;;;;;5095044;28;20028;-83
2022/08/12 04:55:00;;;;;;;8.52;6.78;;;14.70;99.90;;;;;;5095925;28;20367;-74
2022/08/12 04:57:26;;;;;;;7.75;6.97;;;14.80;99.90;;;;;;5095869;28;20056;-84
2022/08/12 04:59:51;;;;;;;9.65;7.88;;;14.90;99.90;;;;;;5096019;28;20024;-83
2022/08/12 05:02:18;;;;;;;11.43;7.55;;;15.00;99.90;;;;;;5095863;28;20028;-86
2022/08/12 05:04:46;;;;;;;11.23;7.35;;;14.90;99.90;;;;;;5094607;28;20020;-75
2022/08/12 05:07:13;;;;;;;8.70;6.93;;;14.90;99.90;;;;;;5094618;28;20032;-74
2022/08/12 05:09:38;;;;;;;9.10;7.68;;;15.00;99.90;;;;;;5096090;28;20066;-86
2022/08/12 05:12:05;;;;;;;9.60;6.97;;;15.10;99.90;;;;;;5094394;28;20020;-86
2022/08/12 05:14:31;;;;;;;7.85;6.68;;;15.20;99.90;;;;;;5095383;28;20393;-74
2022/08/12 05:16:57;;;;;;;7.78;6.95;;;15.20;99.90;;;;;;5095351;28;20085;-74
2022/08/12 05:19:22;;;;;;;8.40;6.00;;;15.30;99.90;;;;;;5093576;28;20031;-74
2022/08/12 05:21:48;;;;;;;7.20;6.50;;;15.50;99.90;;;;;;5094633;28;20028;-74
2022/08/12 05:24:14;;;;;;;9.88;6.75;;;15.60;99.90;;;;;;5094025;28;20406;-74
2022/08/12 05:26:39;;;;;;;8.02;6.05;;;15.80;99.90;;;;;;5095239;28;20020;-75
2022/08/12 05:29:13;;;;;;;7.88;7.18;;;15.90;99.90;;;;;;5094024;28;20020;-75
2022/08/12 05:31:39;;;;;;;7.22;6.35;;;15.90;99.90;;;;;;5094046;28;20031;-86
2022/08/12 05:34:05;;;;;;;9.45;7.28;;;16.00;99.90;;;;;;5093947;28;20413;-83
2022/08/12 05:36:31;;;;;;;11.18;7.22;;;16.10;99.90;;;;;;5095105;28;20039;-75
2022/08/12 05:38:56;;;;;;;7.30;6.60;;;16.20;99.90;;;;;;5093997;28;20441;-84
2022/08/12 05:41:29;;;;;;;7.78;6.97;;;16.30;99.90;;;;;;5095157;28;20415;-82
2022/08/12 05:44:03;;;;;;;13.23;7.32;;;16.40;99.90;;;;;;5093995;28;20032;-81
2022/08/12 05:46:30;;;;;;;7.90;7.10;;;16.50;99.90;;;;;;5095263;28;20032;-75
2022/08/12 05:48:59;;;;;;;8.57;6.45;;;16.50;99.90;;;;;;5094723;28;20055;-82
2022/08/12 05:51:26;;;;;;;8.27;7.00;;;16.60;99.90;;;;;;5089619;28;20390;-83
2022/08/12 05:53:54;;;;;;;9.10;6.97;;;16.80;99.90;;;;;;5090055;28;20160;-75
2022/08/12 05:56:32;;;;;;;7.28;6.57;;;16.90;99.90;;;;;;5094071;28;20028;-75
2022/08/12 05:59:00;;;;;;;9.05;6.82;;;17.10;99.90;;;;;;5092636;28;20073;-74
2022/08/12 06:01:27;;;;;;;7.95;6.03;;;17.20;99.90;;;;;;5092962;28;20042;-82
2022/08/12 06:03:53;;;;;;;9.43;7.38;;;17.20;99.90;;;;;;5093098;28;20489;-79
2022/08/12 06:06:20;;;;;;;9.27;6.95;;;17.40;99.90;;;;;;5092615;28;20040;-74
2022/08/12 06:08:47;;;;;;;8.23;6.47;;;17.50;99.90;;;;;;5093538;28;20138;-74
2022/08/12 06:11:14;;;;;;;8.23;7.00;;;17.50;99.90;;;;;;5092860;28;20032;-75
2022/08/12 06:13:42;;;;;;;7.32;6.63;;;17.60;99.90;;;;;;5093132;28;20137;-75
2022/08/12 06:16:10;;;;;;;7.25;6.20;;;17.60;99.90;;;;;;5094264;28;20115;-82
2022/08/12 06:18:39;;;;;;;8.13;7.18;;;17.70;99.90;;;;;;5092939;28;20389;-80
2022/08/12 06:21:16;;;;;;;10.80;7.47;;;17.80;99.90;;;;;;5092994;28;20031;-82
2022/08/12 06:23:42;;;;;;;7.07;6.20;;;18.00;99.90;;;;;;5092478;28;20027;-83
2022/08/12 06:26:11;;;;;;;9.80;7.03;;;18.00;99.90;;;;;;5093114;28;20019;-82
2022/08/12 06:28:40;;;;;;;8.80;6.07;;;18.20;99.90;;;;;;5094372;28;20027;-83
2022/08/12 06:31:07;;;;;;;7.60;6.32;;;18.20;99.90;;;;;;5094517;28;20542;-75
2022/08/12 06:33:34;;;;;;;6.55;5.95;;;18.30;99.90;;;;;;5092214;28;20028;-82
2022/08/12 06:36:00;;;;;;;8.25;6.28;;;18.50;99.90;;;;;;5090396;28;20024;-75
2022/08/12 06:38:27;;;;;;;7.72;6.32;;;18.40;99.90;;;;;;5090976;28;20031;-83
2022/08/12 06:43:42;;;;;;;6.75;5.60;;;18.40;99.90;;;;;;5092793;28;20055;-82
2022/08/12 06:46:08;;;;;;;6.68;6.10;;;18.30;99.90;;;;;;5092860;28;20020;-82
2022/08/12 06:48:36;;;;;;;6.80;6.13;;;18.40;99.90;;;;;;5090984;28;20499;-82
2022/08/12 06:51:03;;;;;;;6.97;5.68;;;18.40;99.90;;;;;;5091485;28;20070;-82
2022/08/12 06:53:31;;;;;;;6.43;5.78;;;18.60;99.90;;;;;;5092562;28;20405;-75
2022/08/12 06:55:59;;;;;;;8.02;6.30;;;18.70;99.90;;;;;;5092674;28;20094;-81
2022/08/12 06:58:26;;;;;;;8.38;6.95;;;18.80;99.90;;;;;;5093941;28;20024;-81
2022/08/12 07:00:53;;;;;;;6.75;5.97;;;18.90;99.90;;;;;;5093873;28;20028;-76
2022/08/12 07:03:28;;;;;;;7.60;6.10;;;19.00;99.90;;;;;;5093786;28;20020;-82
2022/08/12 07:05:57;;;;;;;7.18;6.07;;;19.20;99.90;;;;;;5092624;28;20059;-76
2022/08/12 07:08:27;;;;;;;6.18;5.35;;;19.40;99.90;;;;;;5093800;28;20024;-82
2022/08/12 07:10:58;;;;;;;6.38;5.78;;;19.50;99.90;;;;;;5092524;28;20012;-82
2022/08/12 07:13:37;;;;;;;6.10;5.50;;;19.50;99.90;;;;;;5093542;28;20028;-76
2022/08/12 07:16:04;;;;;;;9.82;5.40;;;19.50;99.90;;;;;;5093547;28;20028;-82
2022/08/12 07:18:33;;;;;;;6.18;5.53;;;19.50;99.90;;;;;;5093531;28;20024;-82
2022/08/12 07:21:01;;;;;;;7.63;5.75;;;19.60;99.90;;;;;;5092472;28;20111;-76
2022/08/12 07:23:29;;;;;;;8.93;5.93;;;19.70;99.90;;;;;;5092176;28;20038;-75
2022/08/12 07:25:56;;;;;;;7.25;5.38;;;19.80;99.90;;;;;;5093679;28;20031;-75
2022/08/12 07:28:24;;;;;;;5.93;5.32;;;19.80;99.90;;;;;;5093290;28;20020;-76
2022/08/12 07:30:54;;;;;;;6.47;5.80;;;20.00;99.90;;;;;;5092209;28;20012;-76
2022/08/12 07:33:23;;;;;;;5.82;5.18;;;19.90;99.90;;;;;;5093104;28;20020;-83
2022/08/12 07:35:51;;;;;;;6.60;6.00;;;19.90;99.90;;;;;;5092965;28;20024;-83
2022/08/12 07:38:38;;;;;;;6.95;6.28;;;19.90;99.90;;;;;;5093045;28;20504;-76
2022/08/12 07:41:18;;;;;;;7.05;6.13;;;20.00;99.90;;;;;;5093405;28;20061;-79
2022/08/12 07:43:50;;;;;;;6.90;5.65;;;20.10;99.90;;;;;;5093354;28;20025;-77
2022/08/12 07:46:19;;;;;;;5.97;5.47;;;20.10;99.90;;;;;;5092029;28;20024;-79
2022/08/12 07:48:48;;;;;;;6.22;5.63;;;20.30;99.90;;;;;;5091746;28;20400;-79
2022/08/12 07:51:14;;;;;;;6.07;5.50;;;20.30;99.90;;;;;;5092138;28;20104;-79
2022/08/12 07:53:41;;;;;;;6.80;5.07;;;20.40;99.90;;;;;;5084097;28;20485;-76
2022/08/12 07:56:08;;;;;;;9.18;5.35;;;20.60;99.90;;;;;;5072913;28;20046;-76
2022/08/12 07:58:38;;;;;;;5.22;4.63;;;20.80;99.90;;;;;;5073016;28;20099;-76
2022/08/12 08:01:10;;;;;;;5.68;5.18;;;20.80;99.90;;;;;;5087451;28;20089;-76
2022/08/12 08:04:54;;;;;;;7.95;5.72;;;20.70;99.90;;;;;;5092126;28;20478;-80
2022/08/12 08:06:26;;;;;;;9.32;5.68;;;20.90;99.90;;;;;;5093097;28;20059;-78
2022/08/12 08:08:55;;;;;;;4.85;4.45;;;21.00;99.90;;;;;;5092630;28;20477;-79
2022/08/12 08:14:09;;;;;;;5.07;4.57;;;20.90;99.90;;;;;;5092544;28;20039;-78
2022/08/12 08:16:36;;;;;;;6.18;4.88;;;20.90;99.90;;;;;;5091673;28;20494;-79
2022/08/12 08:19:02;;;;;;;5.10;4.60;;;21.20;99.90;;;;;;5091981;28;20040;-78
2022/08/12 08:21:34;;;;;;;5.63;5.13;;;21.30;99.90;;;;;;5093148;28;20028;-78
2022/08/12 08:24:13;;;;;;;5.57;5.05;;;21.50;99.90;;;;;;5093308;28;20017;-73
2022/08/12 08:26:43;;;;;;;5.93;5.38;;;21.50;99.90;;;;;;5093066;28;20082;-73
2022/08/12 08:29:11;;;;;;;6.70;5.25;;;21.60;99.90;;;;;;5092871;28;20024;-79
2022/08/12 08:31:42;;;;;;;5.43;4.85;;;21.90;99.90;;;;;;5095057;28;20115;-79
2022/08/12 08:34:18;;;;;;;6.35;5.57;;;22.00;99.30;;;;;;5096654;28;20724;-79
2022/08/12 08:36:44;;;;;;;4.32;4.03;;;21.90;99.90;;;;;;5096622;28;20024;-73
2022/08/12 08:39:15;;;;;;;4.85;4.45;;;21.70;97.30;;;;;;5095166;28;20020;-73
2022/08/12 08:44:25;;;;;;;6.60;4.80;;;21.60;94.50;;;;;;5096844;28;20132;-73
2022/08/12 08:46:54;;;;;;;5.10;4.70;;;21.40;94.80;;;;;;5095220;28;20063;-73
2022/08/12 08:49:21;;;;;;;5.32;4.82;;;21.50;99.70;;;;;;5096456;28;20059;-79
2022/08/12 08:51:48;;;;;;;6.78;4.82;;;21.30;97.80;;;;;;5094857;28;20470;-78
2022/08/12 08:54:14;;;;;;;15.68;5.05;;;21.20;99.90;;;;;;5096185;28;20111;-78
2022/08/12 08:56:42;;;;;;;4.78;4.22;;;21.40;99.90;;;;;;5096233;28;20037;-79
2022/08/12 08:59:12;;;;;;;4.57;4.18;;;21.80;99.90;;;;;;5096115;28;20371;-74
2022/08/12 09:01:39;;;;;;;6.60;4.40;;;22.00;97.00;;;;;;5096138;28;20056;-73
2022/08/12 09:04:06;;;;;;;7.07;3.88;;;21.80;91.80;;;;;;5096092;28;20028;-78
2022/08/12 09:06:31;;;;;;;7.50;4.68;;;22.20;93.00;;;;;;5096132;28;20024;-78
2022/08/12 09:08:57;;;;;;;5.43;4.20;;;22.30;89.10;;;;;;5095923;28;20076;-78
2022/08/12 09:14:08;;;;;;;4.97;4.43;;;22.50;84.00;;;;;;5095767;28;20031;-79
2022/08/12 09:16:38;;;;;;;4.38;4.00;;;22.20;85.20;;;;;;5095759;28;20035;-73
2022/08/12 09:19:04;;;;;;;5.50;4.07;;;22.00;89.80;;;;;;5095702;28;20028;-80
2022/08/12 09:21:31;;;;;;;4.97;4.57;;;21.90;91.80;;;;;;5094559;28;20024;-76
2022/08/12 09:24:00;;;;;;;4.80;4.32;;;21.80;89.30;;;;;;5095605;28;20500;-76
2022/08/12 09:26:27;;;;;;;4.55;4.03;;;21.70;90.90;;;;;;5074000;28;20386;-81
2022/08/12 09:28:53;;;;;;;4.95;4.28;;;21.70;86.40;;;;;;5075353;28;20398;-75
2022/08/12 09:31:20;;;;;;;4.32;3.67;;;21.70;87.10;;;;;;5073994;28;20166;-81
2022/08/12 09:33:46;;;;;;;4.38;3.97;;;21.70;89.50;;;;;;5074033;28;20039;-76
2022/08/12 09:36:13;;;;;;;4.50;4.00;;;21.60;90.40;;;;;;5079739;28;20024;-81
2022/08/12 09:38:40;;;;;;;4.07;3.78;;;21.50;88.40;;;;;;5095329;28;20020;-75
2022/08/12 09:41:06;;;;;;;3.97;3.67;;;21.80;88.50;;;;;;5094897;28;20220;-82
2022/08/12 09:46:16;;;;;;;5.95;4.43;;;22.60;88.20;;;;;;5095373;28;20062;-76
2022/08/12 09:48:43;;;;;;;4.35;3.67;;;22.80;80.30;;;;;;5095029;28;20120;-76
2022/08/12 09:51:11;;;;;;;4.25;3.75;;;22.90;80.50;;;;;;5095166;28;20044;-76
2022/08/12 09:53:37;;;;;;;4.07;3.70;;;23.10;79.20;;;;;;5093772;28;20107;-76
2022/08/12 09:56:04;;;;;;;4.05;3.55;;;23.30;77.80;;;;;;5093022;28;20073;-81
2022/08/12 09:58:29;;;;;;;4.13;3.83;;;23.30;78.80;;;;;;5093742;28;20020;-81
2022/08/12 10:01:03;;;;;;;3.85;3.55;;;23.30;73.60;;;;;;5094789;28;20030;-76
2022/08/12 10:03:33;;;;;;;4.82;4.18;;;23.50;75.30;;;;;;5094756;28;20060;-82
2022/08/12 10:06:00;;;;;;;4.68;3.60;;;23.60;73.70;;;;;;5094755;28;20044;-81
2022/08/12 10:08:31;;;;;;;4.57;3.75;;;23.20;73.30;;;;;;5094794;28;20099;-76
2022/08/12 10:13:43;;;;;;;5.13;3.40;;;22.70;75.20;;;;;;5095025;28;20066;-76
2022/08/12 10:16:17;;;;;;;6.20;3.38;;;22.80;75.20;;;;;;5094657;28;20024;-81
2022/08/12 10:18:54;;;;;;;4.18;3.88;;;23.30;76.50;;;;;;5094663;28;20457;-77
2022/08/12 10:21:30;;;;;;;4.32;3.90;;;23.50;74.50;;;;;;5094692;28;20066;-81
2022/08/12 10:23:56;;;;;;;4.10;3.70;;;23.60;72.90;;;;;;5094642;28;20024;-82
2022/08/12 10:31:54;;;;;;;4.25;3.95;;;23.30;74.50;;;;;;5094636;28;20071;-81
2022/08/12 10:34:21;;;;;;;4.82;3.75;;;23.70;73.90;;;;;;5093106;28;20055;-81
2022/08/12 10:36:49;;;;;;;4.20;3.90;;;24.00;69.80;;;;;;5092715;28;20122;-81
2022/08/12 10:39:17;;;;;;;4.28;3.88;;;23.80;70.30;;;;;;5094415;28;20031;-81
2022/08/12 10:44:29;;;;;;;7.00;3.67;;;24.20;67.70;;;;;;5094649;28;20196;-77
2022/08/12 10:46:56;;;;;;;4.20;3.85;;;24.00;68.50;;;;;;5094101;28;20108;-81
2022/08/12 10:49:30;;;;;;;4.07;3.78;;;24.20;67.00;;;;;;5092792;28;20040;-81
2022/08/12 10:51:57;;;;;;;6.63;4.05;;;24.30;66.50;;;;;;5092850;28;20035;-81
2022/08/12 10:54:26;;;;;;;5.05;4.57;;;24.60;67.70;;;;;;5092583;28;20432;-82
2022/08/12 10:56:53;;;;;;;4.95;4.10;;;24.50;66.30;;;;;;5093817;28;20050;-82
2022/08/12 10:59:20;;;;;;;4.80;4.40;;;24.50;67.40;;;;;;5092509;28;20020;-82
2022/08/12 11:01:48;;;;;;;4.22;3.83;;;24.40;66.50;;;;;;5092409;28;20202;-81
2022/08/12 11:04:14;;;;;;;4.65;4.03;;;24.40;67.80;;;;;;5093956;28;20016;-76
2022/08/12 11:06:47;;;;;;;4.55;4.10;;;24.50;70.30;;;;;;5092333;28;20028;-81
2022/08/12 11:09:23;;;;;;;4.72;4.28;;;24.50;70.20;;;;;;5092678;28;20046;-82
2022/08/12 11:11:49;;;;;;;5.90;4.60;;;24.50;68.10;;;;;;5092436;28;20354;-83
2022/08/12 11:14:17;;;;;;;4.68;4.18;;;24.70;69.20;;;;;;5092519;28;20056;-82
2022/08/12 11:16:45;;;;;;;4.65;4.15;;;24.70;64.40;;;;;;5093620;28;20059;-81
2022/08/12 11:19:12;;;;;;;3.97;3.58;;;24.50;67.30;;;;;;5093648;28;20133;-82
2022/08/12 11:21:38;;;;;;;3.55;3.20;;;24.00;64.70;;;;;;5093614;28;20481;-76
2022/08/12 11:24:05;;;;;;;4.65;3.55;;;24.00;66.60;;;;;;5093538;28;20041;-77
2022/08/12 11:26:31;;;;;;;5.53;3.78;;;24.20;68.00;;;;;;5092301;28;20119;-77
2022/08/12 11:28:57;;;;;;;5.20;3.70;;;24.20;65.30;;;;;;5092300;28;20024;-82
2022/08/12 11:31:23;;;;;;;3.53;3.33;;;24.20;65.40;;;;;;5092111;28;20028;-82
2022/08/12 11:33:49;;;;;;;4.20;3.75;;;24.30;65.40;;;;;;5092276;28;20067;-76
2022/08/12 11:36:16;;;;;;;4.43;3.60;;;24.40;62.80;;;;;;5093483;28;20064;-76
2022/08/12 11:38:42;;;;;;;4.07;3.78;;;24.60;64.40;;;;;;5093524;28;20469;-82
2022/08/12 11:41:08;;;;;;;4.50;3.72;;;24.40;63.20;;;;;;5093504;28;20020;-82
2022/08/12 11:43:33;;;;;;;4.22;3.45;;;24.30;63.60;;;;;;5093428;28;20020;-77
2022/08/12 11:45:59;;;;;;;5.45;3.88;;;24.40;64.70;;;;;;5092141;28;20016;-77
2022/08/12 11:48:25;;;;;;;5.30;3.88;;;24.60;63.70;;;;;;5092940;28;20164;-82
2022/08/12 11:50:51;;;;;;;4.65;3.88;;;24.60;65.20;;;;;;5092149;28;20080;-83
2022/08/12 11:53:17;;;;;;;4.25;3.90;;;24.90;65.20;;;;;;5091967;28;20481;-82
2022/08/12 11:55:43;;;;;;;4.10;3.80;;;25.20;63.80;;;;;;5091971;28;20021;-77
2022/08/12 11:58:08;;;;;;;4.85;4.43;;;25.30;64.00;;;;;;5092765;28;20028;-77
2022/08/12 12:00:34;;;;;;;4.10;3.80;;;25.40;61.40;;;;;;5093159;28;20020;-79
2022/08/12 12:03:00;;;;;;;4.30;3.83;;;25.00;61.00;;;;;;5091565;28;20039;-77
2022/08/12 12:05:26;;;;;;;3.85;3.13;;;24.70;62.10;;;;;;5094441;28;20052;-75
2022/08/12 12:07:51;;;;;;;3.92;3.50;;;24.70;63.20;;;;;;5095760;28;20085;-80
2022/08/12 12:10:19;;;;;;;4.40;4.03;;;24.30;64.90;;;;;;5097034;28;20028;-81
2022/08/12 12:12:45;;;;;;;4.57;3.90;;;24.10;64.90;;;;;;5095754;28;20572;-80
2022/08/12 12:15:12;;;;;;;3.95;3.72;;;24.30;65.10;;;;;;5095838;28;20020;-80
2022/08/12 12:17:39;;;;;;;4.22;3.20;;;24.40;62.00;;;;;;5096907;28;20035;-77
2022/08/12 12:20:10;;;;;;;5.40;2.97;;;24.50;60.50;;;;;;5096890;28;20020;-77
2022/08/12 12:22:38;;;;;;;3.47;2.65;;;24.60;58.20;;;;;;5095439;28;20047;-80
2022/08/12 12:25:04;;;;;;;2.97;2.78;;;24.90;56.50;;;;;;5095632;28;20016;-81
2022/08/12 12:27:51;;;;;;;3.28;2.97;;;25.20;57.20;;;;;;5096625;28;20023;-82
2022/08/12 12:30:17;;;;;;;5.50;3.33;;;25.20;56.60;;;;;;5096662;28;20016;-75
2022/08/12 12:32:43;;;;;;;3.22;3.00;;;25.30;55.90;;;;;;5095256;28;20027;-83
2022/08/12 12:35:09;;;;;;;3.45;3.17;;;25.30;56.20;;;;;;5096772;28;20020;-80
2022/08/12 12:37:53;;;;;;;4.38;3.40;;;25.00;56.60;;;;;;5095121;28;20032;-81
2022/08/12 12:40:18;;;;;;;2.85;2.65;;;24.70;57.40;;;;;;5096543;28;20081;-76
2022/08/12 12:42:44;;;;;;;3.50;2.92;;;24.50;58.10;;;;;;5096140;28;20028;-76
2022/08/12 12:45:10;;;;;;;3.95;3.30;;;24.50;58.60;;;;;;5094928;28;20047;-77
2022/08/12 12:47:36;;;;;;;5.20;2.90;;;24.50;59.20;;;;;;5093520;28;20020;-81
2022/08/12 12:50:02;;;;;;;5.35;3.50;;;24.50;58.30;;;;;;5096318;28;20032;-81
2022/08/12 12:52:27;;;;;;;4.55;2.88;;;24.70;58.40;;;;;;5094827;28;20111;-81
2022/08/12 12:54:54;;;;;;;3.40;2.65;;;24.80;58.80;;;;;;5094959;28;20028;-76
2022/08/12 12:57:21;;;;;;;3.63;3.15;;;24.60;58.30;;;;;;5094828;28;20389;-76
2022/08/12 13:00:13;;;;;;;3.38;3.08;;;24.40;59.00;;;;;;5096065;28;20016;-76
2022/08/12 13:02:39;;;;;;;3.38;2.88;;;24.20;59.00;;;;;;5096116;28;20111;-81
2022/08/12 13:05:05;;;;;;;;;;;24.10;59.60;;;;;;5096750;28;20020;-82
2022/08/12 13:07:36;;;;;;;4.20;3.83;;;24.10;60.20;;;;;;5094793;28;20419;-81
2022/08/12 13:10:03;;;;;;;3.78;3.45;;;24.00;61.10;;;;;;5096062;28;20686;-76
2022/08/12 13:12:29;;;;;;;3.28;3.08;;;24.20;61.20;;;;;;5096004;28;20035;-76
2022/08/12 13:14:56;;;;;;;3.53;3.22;;;24.20;60.60;;;;;;5095985;28;20103;-81
2022/08/12 13:17:22;;;;;;;4.15;3.72;;;24.20;61.90;;;;;;5094386;28;20043;-76
2022/08/12 13:19:47;;;;;;;3.35;3.15;;;24.10;62.70;;;;;;5095764;28;20024;-82
2022/08/12 13:22:19;;;;;;;3.70;3.33;;;24.00;61.60;;;;;;5094571;28;20104;-81
2022/08/12 13:24:51;;;;;;;3.15;2.95;;;24.00;61.70;;;;;;5095671;28;20470;-81
2022/08/12 13:27:19;;;;;;;5.57;4.55;;;24.10;62.20;;;;;;5094272;28;20024;-82
2022/08/12 13:29:45;;;;;;;3.75;3.40;;;24.00;61.40;;;;;;5094421;28;20493;-76
2022/08/12 13:32:11;;;;;;;4.30;3.90;;;24.20;60.50;;;;;;5095612;28;20082;-76
2022/08/12 13:34:37;;;;;;;4.45;4.10;;;24.40;60.10;;;;;;5095631;28;20028;-82
2022/08/12 13:37:04;;;;;;;3.95;3.65;;;24.70;58.90;;;;;;5094109;28;20032;-78
2022/08/12 13:39:29;;;;;;;4.28;3.90;;;24.90;57.70;;;;;;5095451;28;20052;-76
2022/08/12 13:41:55;;;;;;;3.92;3.63;;;25.00;58.20;;;;;;5095411;28;20445;-82
2022/08/12 13:44:21;;;;;;;4.85;4.45;;;24.90;58.90;;;;;;5095279;28;20024;-81
2022/08/12 13:46:47;;;;;;;4.65;4.25;;;24.80;59.20;;;;;;5094106;28;20051;-76
2022/08/12 13:49:14;;;;;;;4.13;3.83;;;24.60;61.00;;;;;;5095012;28;20056;-82
2022/08/12 13:51:41;;;;;;;5.25;4.65;;;24.70;62.30;;;;;;5095196;28;20028;-82
2022/08/12 13:54:07;;;;;;;6.35;4.13;;;24.80;61.70;;;;;;5093463;28;20020;-75
2022/08/12 13:56:34;;;;;;;5.22;4.70;;;25.00;59.00;;;;;;5093691;28;20040;-82
2022/08/12 13:59:00;;;;;;;4.88;4.47;;;25.10;58.80;;;;;;5094964;28;20017;-82
2022/08/12 14:01:27;;;;;;;4.32;4.03;;;25.20;58.00;;;;;;5095062;28;20028;-81
2022/08/12 14:03:53;;;;;;;6.00;5.40;;;25.30;57.90;;;;;;5094898;28;20020;-82
2022/08/12 14:06:20;;;;;;;4.93;4.53;;;25.30;56.90;;;;;;5094768;28;20056;-76
2022/08/12 14:08:47;;;;;;;5.85;4.97;;;25.50;56.60;;;;;;5094758;28;20023;-82
2022/08/12 14:11:13;;;;;;;5.80;5.07;;;25.50;56.50;;;;;;5094870;28;20025;-82
2022/08/12 14:13:41;;;;;;;3.70;3.50;;;25.60;57.30;;;;;;5094735;28;20146;-76
2022/08/12 14:16:12;;;;;;;4.10;3.80;;;25.50;55.00;;;;;;5093422;28;20047;-81
2022/08/12 14:18:38;;;;;;;3.60;3.40;;;25.30;53.20;;;;;;5094640;28;20525;-76
2022/08/12 14:21:08;;;;;;;6.32;4.45;;;25.30;53.80;;;;;;5094539;28;20398;-82
2022/08/12 14:23:40;;;;;;;4.32;3.95;;;25.30;54.80;;;;;;5094629;28;20055;-81
2022/08/12 14:26:13;;;;;;;5.95;4.28;;;25.40;55.50;;;;;;5094791;28;20030;-76
2022/08/12 14:28:39;;;;;;;4.30;4.00;;;25.60;55.80;;;;;;5094045;28;20024;-76
2022/08/12 14:31:07;;;;;;;5.00;4.60;;;25.70;54.70;;;;;;5093104;28;20070;-82
2022/08/12 14:33:46;;;;;;;4.55;4.10;;;25.80;54.50;;;;;;5094322;28;20020;-81
2022/08/12 14:36:13;;;;;;;4.00;3.70;;;25.90;54.10;;;;;;5094348;28;20031;-76
2022/08/12 14:38:42;;;;;;;4.85;4.35;;;26.00;53.30;;;;;;5094314;28;20111;-77
2022/08/12 14:41:13;;;;;;;5.60;4.30;;;26.00;53.00;;;;;;5091968;28;20107;-81
2022/08/12 14:43:40;;;;;;;5.38;4.93;;;26.20;53.10;;;;;;5092881;28;20027;-75